CL Antwerp — ONIJ — position and weather

sailwx.info

Track history (hours):
 
Tides and Currents Weather Stations Pressure Air Temp Water Temp Dewpoint Dewpoint Depression Visibility Wind Speed Wind Dir Waves Ship Positions

CL Antwerp

Last reported at 2018-Feb-23 13:59 UTC. Time now 2018-Feb-23 14:15 UTC.
Position N 51°53' E 004°27'.

Length 180 m; draft 9.9 m.

Type: Cargo ship. MMSI: 205680000.

Date/timePositionNaut miles runAvg speedWind from/ knotsBaromVisibWave heightAir tempDewpointWater temp
2018-Feb-23 13:59N 51°53' E 004°27'0 0.0
2018-Feb-23 13:29N 51°53' E 004°27'0 0.0
2018-Feb-23 12:59N 51°53' E 004°27'0 0.0
2018-Feb-23 12:29N 51°53' E 004°27'0 0.0
2018-Feb-23 11:59N 51°53' E 004°27'0 0.0
2018-Feb-23 11:29N 51°53' E 004°27'0 0.0
2018-Feb-23 10:59N 51°53' E 004°27'0 0.0
2018-Feb-23 10:29N 51°53' E 004°27'0 0.0
2018-Feb-23 09:59N 51°53' E 004°27'0 0.0
2018-Feb-23 09:29N 51°53' E 004°27'0 0.0
2018-Feb-23 08:59N 51°53' E 004°27'0 0.0
2018-Feb-23 08:29N 51°53' E 004°27'0 0.0
2018-Feb-23 07:59N 51°53' E 004°27'0 0.0
2018-Feb-23 07:29N 51°53' E 004°27'0 0.0
2018-Feb-23 06:59N 51°53' E 004°27'0 0.0
2018-Feb-23 06:29N 51°53' E 004°27'0 0.0
2018-Feb-23 05:59N 51°53' E 004°27'0 0.0
2018-Feb-23 05:29N 51°53' E 004°27'0 0.0
2018-Feb-23 04:59N 51°53' E 004°27'0 0.5
2018-Feb-23 04:31N 51°53' E 004°27'2 3.0
2018-Feb-23 04:00N 51°54' E 004°25'4 8.2
2018-Feb-23 03:30N 51°54' E 004°18'5 9.8
2018-Feb-23 03:01N 51°57' E 004°11'510.0
2018-Feb-23 02:31N 51°59' E 004°04'611.2
2018-Feb-23 02:01N 52°00' E 003°56'611.2
2018-Feb-23 01:30N 51°59' E 003°47'4 7.9
2018-Feb-23 01:00N 51°59' E 003°40'4610.6
2018-Feb-22 20:38N 51°40' E 002°31'211.8
2018-Feb-22 20:29N 51°39' E 002°29'611.8
2018-Feb-22 20:01N 51°35' E 002°24'611.5
2018-Feb-22 19:30N 51°31' E 002°17'612.2
2018-Feb-22 19:00N 51°25' E 002°12'612.6
2018-Feb-22 18:30N 51°19' E 002°08'612.7
2018-Feb-22 18:00N 51°14' E 002°04'713.3
2018-Feb-22 17:30N 51°11' E 001°54'713.5
2018-Feb-22 17:00N 51°07' E 001°46'714.2
2018-Feb-22 16:31N 51°02' E 001°37'814.7
2018-Feb-22 16:00N 50°56' E 001°29'5712.3
2018-Feb-22 11:19N 50°21' E 000°18'412.4
2018-Feb-22 10:58N 50°20' E 000°11'612.1
2018-Feb-22 10:29N 50°18' E 000°02'611.5
2018-Feb-22 10:00N 50°17' W 000°06'611.4
2018-Feb-22 09:29N 50°16' W 000°15'811.2
2018-Feb-22 08:45N 50°14' W 000°27'26 9.7
2018-Feb-22 06:07N 50°09' W 001°06'1 8.8
2018-Feb-22 05:58N 50°08' W 001°08'4 8.8
2018-Feb-22 05:30N 50°08' W 001°15'4 8.7
2018-Feb-22 05:00N 50°09' W 001°22'5 9.1
2018-Feb-22 04:30N 50°09' W 001°29'5 9.7
2018-Feb-22 04:01N 50°09' W 001°36'510.2
2018-Feb-22 03:30N 50°09' W 001°44'611.3
2018-Feb-22 03:00N 50°12' W 001°51'912.5
2018-Feb-22 02:16N 50°19' W 002°00'413.0
2018-Feb-22 01:59N 50°22' W 002°04'1312.9
2018-Feb-22 00:57N 50°32' W 002°19'6 1.0
2018-Feb-21 19:15N 50°36' W 002°24'0 0.3
2018-Feb-21 19:00N 50°36' W 002°24'1 2.5
2018-Feb-21 18:30N 50°35' W 002°23'3 5.1
2018-Feb-21 18:00N 50°33' W 002°20'1811.3
2018-Feb-21 16:23N 50°16' W 002°09'1010.0
2018-Feb-21 15:24N 50°07' W 002°03'411.0
2018-Feb-21 15:00N 50°03' W 002°03'611.1
2018-Feb-21 14:26N 49°58' W 002°09'1412.5
2018-Feb-21 13:19N 49°54' W 002°30'812.9
2018-Feb-21 12:42N 49°52' W 002°42'513.0
2018-Feb-21 12:19N 49°51' W 002°49'1113.1
2018-Feb-21 11:26N 49°48' W 003°07'612.9
2018-Feb-21 11:00N 49°46' W 003°15'  
Track history (hours):
 
Tides and Currents Weather Stations Pressure Air Temp Water Temp Dewpoint Dewpoint Depression Visibility Wind Speed Wind Dir Waves Ship Positions

CL Antwerp

Last reported at 2018-Feb-23 13:59 UTC. Time now 2018-Feb-23 14:15 UTC.
Position N 51°53' E 004°27'.

Length 180 m; draft 9.9 m.

Type: Cargo ship. MMSI: 205680000.

Date/timePositionNaut miles runAvg speedWind from/ knotsBaromVisibWave heightAir tempDewpointWater temp
2018-Feb-23 13:59N 51°53' E 004°27'0 0.0
2018-Feb-23 13:29N 51°53' E 004°27'0 0.0
2018-Feb-23 12:59N 51°53' E 004°27'0 0.0
2018-Feb-23 12:29N 51°53' E 004°27'0 0.0
2018-Feb-23 11:59N 51°53' E 004°27'0 0.0
2018-Feb-23 11:29N 51°53' E 004°27'0 0.0
2018-Feb-23 10:59N 51°53' E 004°27'0 0.0
2018-Feb-23 10:29N 51°53' E 004°27'0 0.0
2018-Feb-23 09:59N 51°53' E 004°27'0 0.0
2018-Feb-23 09:29N 51°53' E 004°27'0 0.0
2018-Feb-23 08:59N 51°53' E 004°27'0 0.0
2018-Feb-23 08:29N 51°53' E 004°27'0 0.0
2018-Feb-23 07:59N 51°53' E 004°27'0 0.0
2018-Feb-23 07:29N 51°53' E 004°27'0 0.0
2018-Feb-23 06:59N 51°53' E 004°27'0 0.0
2018-Feb-23 06:29N 51°53' E 004°27'0 0.0
2018-Feb-23 05:59N 51°53' E 004°27'0 0.0
2018-Feb-23 05:29N 51°53' E 004°27'0 0.0
2018-Feb-23 04:59N 51°53' E 004°27'0 0.5
2018-Feb-23 04:31N 51°53' E 004°27'2 3.0
2018-Feb-23 04:00N 51°54' E 004°25'4 8.2
2018-Feb-23 03:30N 51°54' E 004°18'5 9.8
2018-Feb-23 03:01N 51°57' E 004°11'510.0
2018-Feb-23 02:31N 51°59' E 004°04'611.2
2018-Feb-23 02:01N 52°00' E 003°56'611.2
2018-Feb-23 01:30N 51°59' E 003°47'4 7.9
2018-Feb-23 01:00N 51°59' E 003°40'4610.6
2018-Feb-22 20:38N 51°40' E 002°31'211.8
2018-Feb-22 20:29N 51°39' E 002°29'611.8
2018-Feb-22 20:01N 51°35' E 002°24'611.5
2018-Feb-22 19:30N 51°31' E 002°17'612.2
2018-Feb-22 19:00N 51°25' E 002°12'612.6
2018-Feb-22 18:30N 51°19' E 002°08'612.7
2018-Feb-22 18:00N 51°14' E 002°04'713.3
2018-Feb-22 17:30N 51°11' E 001°54'713.5
2018-Feb-22 17:00N 51°07' E 001°46'714.2
2018-Feb-22 16:31N 51°02' E 001°37'814.7
2018-Feb-22 16:00N 50°56' E 001°29'5712.3
2018-Feb-22 11:19N 50°21' E 000°18'412.4
2018-Feb-22 10:58N 50°20' E 000°11'612.1
2018-Feb-22 10:29N 50°18' E 000°02'611.5
2018-Feb-22 10:00N 50°17' W 000°06'611.4
2018-Feb-22 09:29N 50°16' W 000°15'811.2
2018-Feb-22 08:45N 50°14' W 000°27'26 9.7
2018-Feb-22 06:07N 50°09' W 001°06'1 8.8
2018-Feb-22 05:58N 50°08' W 001°08'4 8.8
2018-Feb-22 05:30N 50°08' W 001°15'4 8.7
2018-Feb-22 05:00N 50°09' W 001°22'5 9.1
2018-Feb-22 04:30N 50°09' W 001°29'5 9.7
2018-Feb-22 04:01N 50°09' W 001°36'510.2
2018-Feb-22 03:30N 50°09' W 001°44'611.3
2018-Feb-22 03:00N 50°12' W 001°51'912.5
2018-Feb-22 02:16N 50°19' W 002°00'413.0
2018-Feb-22 01:59N 50°22' W 002°04'1312.9
2018-Feb-22 00:57N 50°32' W 002°19'6 1.0
2018-Feb-21 19:15N 50°36' W 002°24'0 0.3
2018-Feb-21 19:00N 50°36' W 002°24'1 2.5
2018-Feb-21 18:30N 50°35' W 002°23'3 5.1
2018-Feb-21 18:00N 50°33' W 002°20'1811.3
2018-Feb-21 16:23N 50°16' W 002°09'1010.0
2018-Feb-21 15:24N 50°07' W 002°03'411.0
2018-Feb-21 15:00N 50°03' W 002°03'611.1
2018-Feb-21 14:26N 49°58' W 002°09'1412.5
2018-Feb-21 13:19N 49°54' W 002°30'812.9
2018-Feb-21 12:42N 49°52' W 002°42'513.0
2018-Feb-21 12:19N 49°51' W 002°49'1113.1
2018-Feb-21 11:26N 49°48' W 003°07'612.9
2018-Feb-21 11:00N 49°46' W 003°15'  

Dump ship's entire track history